Time;durP1;ratioP1;P1;durP2;ratioP2;P2;SDS_P1;SDS_P2;PMS_P1;PMS_P2;Temp;Humidity;BMP_temperature;BMP_pressure;BME280_temperature;BME280_humidity;BME280_pressure;Samples;Min_cycle;Max_cycle;Signal;HPM_P1;HPM_P2
2023/06/03 00:01:43;;;;;;;1.65;1.00;;;;;;;;;;5053286;28;20194;-79
2023/06/03 00:04:14;;;;;;;0.90;0.90;;;;;;;;;;5055850;28;20662;-80
2023/06/03 00:06:41;;;;;;;0.85;0.85;;;;;;;;;;5055450;28;20248;-79
2023/06/03 00:09:09;;;;;;;1.17;1.08;;;;;;;;;;5053414;28;20297;-79
2023/06/03 00:11:37;;;;;;;1.00;0.80;;;;;;;;;;5053481;28;20205;-78
2023/06/03 00:14:05;;;;;;;1.00;1.00;;;;;;;;;;5054731;28;20198;-78
2023/06/03 00:16:36;;;;;;;1.42;1.10;;;;;;;;;;5070766;22;20278;-86
2023/06/03 00:19:05;;;;;;;0.88;0.88;;;;;;;;;;5071510;28;20201;-85
2023/06/03 00:21:33;;;;;;;0.80;0.80;;;;;;;;;;5076253;28;20284;-85
2023/06/03 00:24:00;;;;;;;1.40;1.30;;;;;;;;;;5075986;28;20231;-85
2023/06/03 00:26:28;;;;;;;0.80;0.80;;;;;;;;;;5076003;28;20272;-86
2023/06/03 00:28:55;;;;;;;1.00;1.00;;;;;;;;;;5069881;28;20617;-85
2023/06/03 00:31:22;;;;;;;0.90;0.90;;;;;;;;;;5061336;28;20279;-86
2023/06/03 00:33:50;;;;;;;0.88;0.80;;;;;;;;;;5068221;28;20217;-85
2023/06/03 00:36:19;;;;;;;0.60;0.60;;;;;;;;;;5076275;28;20550;-86
2023/06/03 00:38:47;;;;;;;0.77;0.77;;;;;;;;;;5075458;28;20320;-85
2023/06/03 00:41:14;;;;;;;1.10;0.90;;;;;;;;;;5074673;28;20256;-85
2023/06/03 00:43:42;;;;;;;0.93;0.90;;;;;;;;;;5072560;28;20249;-85
2023/06/03 00:46:11;;;;;;;0.80;0.80;;;;;;;;;;5074984;28;20764;-85
2023/06/03 00:48:39;;;;;;;2.08;0.90;;;;;;;;;;5075041;28;20193;-86
2023/06/03 00:51:07;;;;;;;0.82;0.70;;;;;;;;;;5074490;28;20201;-85
2023/06/03 00:53:36;;;;;;;1.30;1.20;;;;;;;;;;5066648;28;20215;-85
2023/06/03 00:56:04;;;;;;;0.80;0.80;;;;;;;;;;5074867;28;20284;-85
2023/06/03 00:58:32;;;;;;;1.55;1.00;;;;;;;;;;5074528;28;20308;-85
2023/06/03 01:00:59;;;;;;;0.60;0.60;;;;;;;;;;5073493;28;20680;-85
2023/06/03 01:03:26;;;;;;;0.80;0.77;;;;;;;;;;5075132;28;20227;-86
2023/06/03 01:06:04;;;;;;;1.05;1.00;;;;;;;;;;5074409;28;20572;-85
2023/06/03 01:08:38;;;;;;;0.70;0.70;;;;;;;;;;5074637;28;20574;-85
2023/06/03 01:11:10;;;;;;;0.73;0.73;;;;;;;;;;5059122;28;20199;-85
2023/06/03 01:13:45;;;;;;;1.33;0.73;;;;;;;;;;5070830;28;20223;-84
2023/06/03 01:16:15;;;;;;;0.90;0.90;;;;;;;;;;5065839;28;20255;-86
2023/06/03 01:18:45;;;;;;;0.93;0.90;;;;;;;;;;5055355;28;20222;-85
2023/06/03 01:21:13;;;;;;;0.90;0.90;;;;;;;;;;5055339;28;20304;-85
2023/06/03 01:23:46;;;;;;;0.90;0.90;;;;;;;;;;5069177;28;20228;-85
2023/06/03 01:26:13;;;;;;;0.75;0.75;;;;;;;;;;5075498;28;20684;-86
2023/06/03 01:28:41;;;;;;;1.38;1.10;;;;;;;;;;5072842;28;20291;-85
2023/06/03 01:31:08;;;;;;;0.95;0.80;;;;;;;;;;5068272;28;20203;-85
2023/06/03 01:33:36;;;;;;;1.75;1.00;;;;;;;;;;5075463;28;20308;-84
2023/06/03 01:36:06;;;;;;;1.08;1.08;;;;;;;;;;5076129;28;20741;-84
2023/06/03 01:38:34;;;;;;;1.33;0.93;;;;;;;;;;5075007;28;20244;-86
2023/06/03 01:41:05;;;;;;;0.77;0.77;;;;;;;;;;5070579;28;20226;-86
2023/06/03 01:43:32;;;;;;;0.80;0.80;;;;;;;;;;5074766;28;20221;-84
2023/06/03 01:46:00;;;;;;;0.82;0.82;;;;;;;;;;5074580;28;20713;-86
2023/06/03 01:48:27;;;;;;;0.80;0.80;;;;;;;;;;5075198;28;20612;-86
2023/06/03 01:50:55;;;;;;;1.65;0.90;;;;;;;;;;5074210;28;20610;-85
2023/06/03 01:53:23;;;;;;;1.30;0.60;;;;;;;;;;5074476;28;20253;-85
2023/06/03 01:55:51;;;;;;;0.80;0.80;;;;;;;;;;5076498;28;20196;-85
2023/06/03 01:58:20;;;;;;;0.77;0.77;;;;;;;;;;5075389;28;20701;-85
2023/06/03 02:00:48;;;;;;;1.63;1.00;;;;;;;;;;5074754;28;20231;-85
2023/06/03 02:03:15;;;;;;;0.70;0.70;;;;;;;;;;5067438;28;20244;-85
2023/06/03 02:05:43;;;;;;;1.20;1.10;;;;;;;;;;5076024;28;20208;-83
2023/06/03 02:08:10;;;;;;;1.33;0.80;;;;;;;;;;5075200;28;20724;-85
2023/06/03 02:10:38;;;;;;;0.65;0.65;;;;;;;;;;5075147;28;20197;-85
2023/06/03 02:13:05;;;;;;;0.90;0.90;;;;;;;;;;5072845;28;20217;-85
2023/06/03 02:15:34;;;;;;;1.27;0.80;;;;;;;;;;5072590;28;20211;-85
2023/06/03 02:18:03;;;;;;;0.95;0.70;;;;;;;;;;5074363;28;20696;-85
2023/06/03 02:20:30;;;;;;;3.55;0.82;;;;;;;;;;5067548;28;20233;-86
2023/06/03 02:22:58;;;;;;;1.40;1.00;;;;;;;;;;5076372;28;20231;-84
2023/06/03 02:25:26;;;;;;;0.98;0.80;;;;;;;;;;5075620;28;20199;-85
2023/06/03 02:27:54;;;;;;;0.90;0.90;;;;;;;;;;5075546;28;20283;-84
2023/06/03 02:30:22;;;;;;;0.68;0.68;;;;;;;;;;5075665;28;20319;-85
2023/06/03 02:32:51;;;;;;;0.95;0.82;;;;;;;;;;5076901;28;20200;-85
2023/06/03 02:35:18;;;;;;;1.33;1.23;;;;;;;;;;5077374;28;20637;-84
2023/06/03 02:37:46;;;;;;;2.38;0.85;;;;;;;;;;5076488;28;20280;-84
2023/06/03 02:40:14;;;;;;;2.45;0.75;;;;;;;;;;5073073;28;20312;-85
2023/06/03 02:42:41;;;;;;;0.70;0.70;;;;;;;;;;5075798;28;20641;-85
2023/06/03 02:45:10;;;;;;;0.88;0.88;;;;;;;;;;5068612;28;20278;-85
2023/06/03 02:47:38;;;;;;;0.70;0.70;;;;;;;;;;5067706;28;20552;-84
2023/06/03 02:50:08;;;;;;;1.02;1.00;;;;;;;;;;5075567;28;20197;-85
2023/06/03 02:52:36;;;;;;;1.13;1.02;;;;;;;;;;5075577;28;20284;-85
2023/06/03 02:55:04;;;;;;;1.60;0.75;;;;;;;;;;5073909;28;20367;-84
2023/06/03 02:57:31;;;;;;;0.88;0.82;;;;;;;;;;5076084;28;20193;-84
2023/06/03 02:59:59;;;;;;;0.95;0.95;;;;;;;;;;5061369;28;20248;-86
2023/06/03 03:02:26;;;;;;;0.80;0.80;;;;;;;;;;5075740;28;20287;-84
2023/06/03 03:04:54;;;;;;;1.70;0.90;;;;;;;;;;5078517;28;20227;-85
2023/06/03 03:07:26;;;;;;;0.90;0.90;;;;;;;;;;5073305;28;20193;-86
2023/06/03 03:09:54;;;;;;;1.65;1.10;;;;;;;;;;5064411;28;20185;-85
2023/06/03 03:12:21;;;;;;;1.13;0.90;;;;;;;;;;5075704;28;20241;-85
2023/06/03 03:14:49;;;;;;;1.20;1.00;;;;;;;;;;5078931;28;20249;-83
2023/06/03 03:17:16;;;;;;;1.67;0.90;;;;;;;;;;5079361;28;20240;-86
2023/06/03 03:19:44;;;;;;;0.90;0.90;;;;;;;;;;5079269;28;20252;-86
2023/06/03 03:22:11;;;;;;;1.10;1.00;;;;;;;;;;5079950;28;20682;-84
2023/06/03 03:24:42;;;;;;;0.80;0.80;;;;;;;;;;5078051;28;20300;-84
2023/06/03 03:27:09;;;;;;;0.90;0.90;;;;;;;;;;5061259;28;20229;-85
2023/06/03 03:29:37;;;;;;;0.88;0.80;;;;;;;;;;5079030;28;20250;-84
2023/06/03 03:32:07;;;;;;;1.27;1.00;;;;;;;;;;5080108;28;20232;-85
2023/06/03 03:34:36;;;;;;;1.10;1.00;;;;;;;;;;5080198;28;20667;-84
2023/06/03 03:37:05;;;;;;;1.38;1.02;;;;;;;;;;5081017;28;20292;-84
2023/06/03 03:39:32;;;;;;;1.35;1.13;;;;;;;;;;5080251;28;20255;-84
2023/06/03 03:42:01;;;;;;;0.85;0.85;;;;;;;;;;5079100;28;20197;-84
2023/06/03 03:44:31;;;;;;;1.48;0.90;;;;;;;;;;5072348;28;20323;-85
2023/06/03 03:47:01;;;;;;;0.80;0.80;;;;;;;;;;5079626;28;20216;-85
2023/06/03 03:49:31;;;;;;;1.38;1.00;;;;;;;;;;5076824;28;20710;-85
2023/06/03 03:52:05;;;;;;;1.65;1.00;;;;;;;;;;5077945;28;20193;-85
2023/06/03 03:54:35;;;;;;;0.75;0.75;;;;;;;;;;5089500;22;20213;-78
2023/06/03 03:57:11;;;;;;;1.15;1.05;;;;;;;;;;5059797;28;20221;-79
2023/06/03 03:59:39;;;;;;;1.25;1.15;;;;;;;;;;5053051;28;20287;-80
2023/06/03 04:02:07;;;;;;;3.80;1.23;;;;;;;;;;5051847;28;20293;-80
2023/06/03 04:04:44;;;;;;;1.60;1.17;;;;;;;;;;5053831;28;20293;-80
2023/06/03 04:07:14;;;;;;;1.27;1.17;;;;;;;;;;5043604;28;20227;-80
2023/06/03 04:09:42;;;;;;;0.93;0.93;;;;;;;;;;5052345;28;20233;-80
2023/06/03 04:12:22;;;;;;;1.20;1.10;;;;;;;;;;5054914;28;20198;-80
2023/06/03 04:14:53;;;;;;;0.90;0.90;;;;;;;;;;5045169;28;20280;-80
2023/06/03 04:17:21;;;;;;;1.00;1.00;;;;;;;;;;5047886;28;20720;-79
2023/06/03 04:19:49;;;;;;;1.23;1.13;;;;;;;;;;5054476;28;20214;-79
2023/06/03 04:22:21;;;;;;;1.10;0.98;;;;;;;;;;5055089;28;20234;-79
2023/06/03 04:24:56;;;;;;;1.30;1.10;;;;;;;;;;5054777;28;20625;-79
2023/06/03 04:27:25;;;;;;;2.47;0.98;;;;;;;;;;5050816;28;20221;-80
2023/06/03 04:29:53;;;;;;;2.03;1.45;;;;;;;;;;5048983;28;20198;-78
2023/06/03 04:32:20;;;;;;;1.75;1.10;;;;;;;;;;5051725;28;20194;-80
2023/06/03 04:34:53;;;;;;;1.40;1.30;;;;;;;;;;5051803;28;20289;-80
2023/06/03 04:37:22;;;;;;;2.15;1.10;;;;;;;;;;5040089;28;20225;-80
2023/06/03 04:39:49;;;;;;;1.80;1.23;;;;;;;;;;5055081;28;20735;-80
2023/06/03 04:42:17;;;;;;;1.52;1.05;;;;;;;;;;5051548;28;20201;-79
2023/06/03 04:44:48;;;;;;;1.58;1.48;;;;;;;;;;5054563;28;20328;-80
2023/06/03 04:47:17;;;;;;;1.38;1.27;;;;;;;;;;5040627;28;20276;-80
2023/06/03 04:49:47;;;;;;;1.98;1.25;;;;;;;;;;5043284;28;20193;-80
2023/06/03 04:52:15;;;;;;;1.13;1.02;;;;;;;;;;5053880;28;20197;-80
2023/06/03 04:54:43;;;;;;;1.65;1.55;;;;;;;;;;5046596;28;20289;-80
2023/06/03 04:57:10;;;;;;;0.90;0.90;;;;;;;;;;5053209;28;20221;-80
2023/06/03 04:59:38;;;;;;;1.15;1.05;;;;;;;;;;5048756;28;20218;-80
2023/06/03 05:02:08;;;;;;;1.45;1.10;;;;;;;;;;5054077;28;20204;-80
2023/06/03 05:04:37;;;;;;;1.65;1.23;;;;;;;;;;5053382;28;20209;-80
2023/06/03 05:07:05;;;;;;;0.80;0.80;;;;;;;;;;5036365;28;20694;-80
2023/06/03 05:09:33;;;;;;;0.95;0.90;;;;;;;;;;5052077;28;20194;-79
2023/06/03 05:12:00;;;;;;;1.25;1.15;;;;;;;;;;5049741;28;20212;-80
2023/06/03 05:14:28;;;;;;;2.75;1.55;;;;;;;;;;5051352;28;20205;-79
2023/06/03 05:16:55;;;;;;;1.08;1.08;;;;;;;;;;5053140;28;20308;-80
2023/06/03 05:19:24;;;;;;;0.88;0.88;;;;;;;;;;5054395;28;20201;-79
2023/06/03 05:21:52;;;;;;;1.48;1.25;;;;;;;;;;5052594;28;20754;-79
2023/06/03 05:24:19;;;;;;;0.93;0.90;;;;;;;;;;5034057;28;20206;-79
2023/06/03 05:26:46;;;;;;;1.70;1.60;;;;;;;;;;5042953;28;20221;-80
2023/06/03 05:29:14;;;;;;;1.30;1.20;;;;;;;;;;5048126;28;20197;-78
2023/06/03 05:31:41;;;;;;;0.90;0.90;;;;;;;;;;5048297;28;20552;-79
2023/06/03 05:34:10;;;;;;;0.93;0.93;;;;;;;;;;5051674;28;20204;-80
2023/06/03 05:36:39;;;;;;;1.10;1.00;;;;;;;;;;5052492;28;20222;-80
2023/06/03 05:39:06;;;;;;;1.08;1.02;;;;;;;;;;5052442;28;20225;-79
2023/06/03 05:41:34;;;;;;;1.40;1.15;;;;;;;;;;5049424;28;20228;-80
2023/06/03 05:44:01;;;;;;;1.90;1.80;;;;;;;;;;5045619;28;20221;-81
2023/06/03 05:46:29;;;;;;;1.13;1.02;;;;;;;;;;5049763;28;20218;-80
2023/06/03 05:48:56;;;;;;;1.27;1.17;;;;;;;;;;5051428;28;20208;-80
2023/06/03 05:51:23;;;;;;;1.95;1.00;;;;;;;;;;5053366;28;20650;-79
2023/06/03 05:53:52;;;;;;;1.17;1.10;;;;;;;;;;5053986;28;20284;-80
2023/06/03 05:56:20;;;;;;;2.15;0.90;;;;;;;;;;5050923;28;20308;-80
2023/06/03 05:58:47;;;;;;;1.05;0.95;;;;;;;;;;5051613;28;20201;-78
2023/06/03 06:01:15;;;;;;;1.15;0.90;;;;;;;;;;5053652;28;20213;-81
2023/06/03 06:03:42;;;;;;;0.80;0.80;;;;;;;;;;5053622;28;20197;-80
2023/06/03 06:06:09;;;;;;;0.70;0.70;;;;;;;;;;5052879;28;20222;-80
2023/06/03 06:08:37;;;;;;;0.80;0.80;;;;;;;;;;5056496;28;20210;-81
2023/06/03 06:11:06;;;;;;;1.70;0.93;;;;;;;;;;5060773;28;20230;-80
2023/06/03 06:13:33;;;;;;;1.73;1.63;;;;;;;;;;5067430;28;20277;-80
2023/06/03 06:18:30;;;;;;;1.02;0.90;;;;;;;;;;5028003;28;20292;-77
2023/06/03 06:20:58;;;;;;;1.02;0.98;;;;;;;;;;5030742;28;20295;-76
2023/06/03 06:23:25;;;;;;;1.52;1.30;;;;;;;;;;5031751;28;20200;-76
2023/06/03 06:25:55;;;;;;;1.23;0.80;;;;;;;;;;5029368;28;20662;-77
2023/06/03 06:28:27;;;;;;;2.45;1.00;;;;;;;;;;5050927;28;20215;-76
2023/06/03 06:30:55;;;;;;;1.30;1.02;;;;;;;;;;5050221;28;20650;-77
2023/06/03 06:33:23;;;;;;;1.02;0.90;;;;;;;;;;5051228;28;20604;-77
2023/06/03 06:35:50;;;;;;;1.35;1.25;;;;;;;;;;5051067;28;20201;-77
2023/06/03 06:38:18;;;;;;;0.90;0.90;;;;;;;;;;5053038;28;20227;-78
2023/06/03 06:40:45;;;;;;;0.80;0.80;;;;;;;;;;5053231;28;20197;-78
2023/06/03 06:43:16;;;;;;;1.45;1.35;;;;;;;;;;5053179;28;20197;-78
2023/06/03 06:45:44;;;;;;;2.08;1.33;;;;;;;;;;5050162;28;20689;-78
2023/06/03 06:48:14;;;;;;;1.63;1.10;;;;;;;;;;5056037;28;20228;-77
2023/06/03 06:50:50;;;;;;;1.10;1.00;;;;;;;;;;5053388;28;20553;-77
2023/06/03 06:53:20;;;;;;;1.13;1.00;;;;;;;;;;5055663;28;20208;-77
2023/06/03 06:55:51;;;;;;;1.45;1.35;;;;;;;;;;5055609;28;20202;-77
2023/06/03 06:58:19;;;;;;;1.30;1.20;;;;;;;;;;5045665;28;20304;-77
2023/06/03 07:00:49;;;;;;;1.27;1.17;;;;;;;;;;5050456;28;21767;-77
2023/06/03 07:03:17;;;;;;;0.80;0.80;;;;;;;;;;5053314;28;20198;-78
2023/06/03 07:05:46;;;;;;;0.90;0.90;;;;;;;;;;5047923;28;20204;-77
2023/06/03 07:08:13;;;;;;;0.85;0.82;;;;;;;;;;5052964;28;20300;-77
2023/06/03 07:10:41;;;;;;;0.93;0.93;;;;;;;;;;5050345;28;20202;-77
2023/06/03 07:13:09;;;;;;;1.33;1.00;;;;;;;;;;5053131;28;20674;-77
2023/06/03 07:15:40;;;;;;;0.85;0.85;;;;;;;;;;5052658;28;20691;-78
2023/06/03 07:18:10;;;;;;;1.02;0.80;;;;;;;;;;5053361;28;20320;-77
2023/06/03 07:20:41;;;;;;;0.88;0.80;;;;;;;;;;5053703;28;20669;-77
2023/06/03 07:23:11;;;;;;;2.00;1.02;;;;;;;;;;5051912;28;20208;-77
2023/06/03 07:25:42;;;;;;;0.80;0.80;;;;;;;;;;5054054;28;20208;-77
2023/06/03 07:28:11;;;;;;;1.42;1.30;;;;;;;;;;5053203;28;20764;-77
2023/06/03 07:30:40;;;;;;;1.10;1.00;;;;;;;;;;5054020;28;20204;-77
2023/06/03 07:33:11;;;;;;;0.63;0.63;;;;;;;;;;5054402;28;20226;-78
2023/06/03 07:35:38;;;;;;;1.40;1.30;;;;;;;;;;5054403;28;20219;-78
2023/06/03 07:38:06;;;;;;;1.15;0.80;;;;;;;;;;5053325;28;20624;-77
2023/06/03 07:40:41;;;;;;;1.40;0.90;;;;;;;;;;5053271;28;20190;-77
2023/06/03 07:43:09;;;;;;;1.08;0.70;;;;;;;;;;5055516;28;20204;-78
2023/06/03 07:45:38;;;;;;;0.90;0.90;;;;;;;;;;5053453;28;20701;-78
2023/06/03 07:48:08;;;;;;;1.00;0.85;;;;;;;;;;5053644;28;20285;-79
2023/06/03 07:50:36;;;;;;;1.45;1.10;;;;;;;;;;5051856;28;20205;-79
2023/06/03 07:53:05;;;;;;;1.10;1.00;;;;;;;;;;5055224;28;20225;-78
2023/06/03 07:55:40;;;;;;;0.93;0.93;;;;;;;;;;5054603;28;20272;-78
2023/06/03 07:58:08;;;;;;;1.00;1.00;;;;;;;;;;5035464;28;20218;-78
2023/06/03 08:00:36;;;;;;;0.85;0.70;;;;;;;;;;5045735;28;20205;-78
2023/06/03 08:03:04;;;;;;;1.02;0.82;;;;;;;;;;5048275;28;20202;-78
2023/06/03 08:05:36;;;;;;;1.63;0.95;;;;;;;;;;5047858;28;20205;-77
2023/06/03 08:08:05;;;;;;;1.42;1.33;;;;;;;;;;5054633;28;20602;-78
2023/06/03 08:10:35;;;;;;;0.70;0.70;;;;;;;;;;5054599;28;20203;-79
2023/06/03 08:13:03;;;;;;;1.85;0.85;;;;;;;;;;5053336;28;20231;-77
2023/06/03 08:15:32;;;;;;;1.38;1.02;;;;;;;;;;5053728;28;20583;-78
2023/06/03 08:18:00;;;;;;;0.98;0.98;;;;;;;;;;5052667;28;20226;-79
2023/06/03 08:20:28;;;;;;;1.20;1.10;;;;;;;;;;5050770;28;20204;-78
2023/06/03 08:22:57;;;;;;;1.05;1.05;;;;;;;;;;5049748;28;20200;-79
2023/06/03 08:25:25;;;;;;;1.13;0.93;;;;;;;;;;5052476;28;20283;-78
2023/06/03 08:27:53;;;;;;;1.33;1.20;;;;;;;;;;5054116;28;20301;-79
2023/06/03 08:30:21;;;;;;;1.45;0.95;;;;;;;;;;5052581;28;20292;-78
2023/06/03 08:32:51;;;;;;;1.02;0.88;;;;;;;;;;5052522;28;20348;-78
2023/06/03 08:35:22;;;;;;;0.80;0.80;;;;;;;;;;5054352;28;20272;-79
2023/06/03 08:37:49;;;;;;;1.65;1.00;;;;;;;;;;5046910;28;20286;-79
2023/06/03 08:40:21;;;;;;;0.85;0.82;;;;;;;;;;5049221;28;20672;-78
2023/06/03 08:42:49;;;;;;;1.08;0.80;;;;;;;;;;5053760;28;20200;-79
2023/06/03 08:45:19;;;;;;;1.02;1.02;;;;;;;;;;5053361;28;20244;-79
2023/06/03 08:48:10;;;;;;;0.80;0.80;;;;;;;;;;5053933;28;20232;-79
2023/06/03 08:50:38;;;;;;;0.70;0.70;;;;;;;;;;5050769;28;20216;-80
2023/06/03 08:53:09;;;;;;;2.70;1.05;;;;;;;;;;5054817;28;20611;-80
2023/06/03 08:55:39;;;;;;;1.40;0.90;;;;;;;;;;5053698;28;20216;-80
2023/06/03 08:58:13;;;;;;;1.60;0.93;;;;;;;;;;5053019;28;20224;-79
2023/06/03 09:00:41;;;;;;;0.93;0.93;;;;;;;;;;5045219;28;20216;-80
2023/06/03 09:03:11;;;;;;;1.80;1.00;;;;;;;;;;5051838;28;20199;-79
2023/06/03 09:05:40;;;;;;;1.45;0.98;;;;;;;;;;5053386;28;20582;-80
2023/06/03 09:08:07;;;;;;;1.02;0.98;;;;;;;;;;5054961;28;20740;-81
2023/06/03 09:10:36;;;;;;;1.30;1.20;;;;;;;;;;5054861;28;20194;-80
2023/06/03 09:13:04;;;;;;;4.07;3.13;;;;;;;;;;5055524;28;20609;-80
2023/06/03 09:15:31;;;;;;;2.70;1.98;;;;;;;;;;5055388;28;20197;-80
2023/06/03 09:17:59;;;;;;;1.40;1.30;;;;;;;;;;5054657;28;20225;-80
2023/06/03 09:20:26;;;;;;;1.23;1.13;;;;;;;;;;5053370;28;20225;-80
2023/06/03 09:22:54;;;;;;;1.05;1.05;;;;;;;;;;5055186;28;20292;-80
2023/06/03 09:25:22;;;;;;;1.20;1.00;;;;;;;;;;5055024;28;20666;-80
2023/06/03 09:27:51;;;;;;;1.10;1.05;;;;;;;;;;5053625;28;20228;-79
2023/06/03 09:30:18;;;;;;;1.80;1.00;;;;;;;;;;5053456;28;20240;-79
2023/06/03 09:32:46;;;;;;;0.93;0.93;;;;;;;;;;5054336;28;20217;-79
2023/06/03 09:35:13;;;;;;;0.90;0.90;;;;;;;;;;5053974;28;20206;-80
2023/06/03 09:37:59;;;;;;;2.35;1.23;;;;;;;;;;5053091;28;20244;-78
2023/06/03 09:40:29;;;;;;;0.60;0.60;;;;;;;;;;5054373;28;20247;-79
2023/06/03 09:42:58;;;;;;;0.80;0.80;;;;;;;;;;5054055;28;20247;-80
2023/06/03 09:45:30;;;;;;;2.22;1.20;;;;;;;;;;5054154;28;20220;-80
2023/06/03 09:47:58;;;;;;;1.00;1.00;;;;;;;;;;5054210;28;20218;-80
2023/06/03 09:50:29;;;;;;;0.90;0.90;;;;;;;;;;5053803;28;20700;-80
2023/06/03 09:52:57;;;;;;;2.42;1.27;;;;;;;;;;5053634;28;20694;-79
2023/06/03 09:55:32;;;;;;;1.23;1.13;;;;;;;;;;5050567;28;20826;-81
2023/06/03 09:58:09;;;;;;;2.05;1.23;;;;;;;;;;5053205;28;20221;-81
2023/06/03 10:00:48;;;;;;;1.85;0.90;;;;;;;;;;5053536;28;20577;-80
2023/06/03 10:03:18;;;;;;;1.38;1.27;;;;;;;;;;5053376;28;20209;-80
2023/06/03 10:05:46;;;;;;;1.27;1.23;;;;;;;;;;5053133;28;20681;-81
2023/06/03 10:08:13;;;;;;;0.95;0.95;;;;;;;;;;5051193;28;20223;-81
2023/06/03 10:10:56;;;;;;;1.08;0.98;;;;;;;;;;5044704;28;20206;-80
2023/06/03 10:13:25;;;;;;;0.82;0.75;;;;;;;;;;5050529;28;20596;-80
2023/06/03 10:15:53;;;;;;;1.40;1.30;;;;;;;;;;5053132;28;20202;-80
2023/06/03 10:18:37;;;;;;;1.10;1.10;;;;;;;;;;5052312;28;20244;-81
2023/06/03 10:21:08;;;;;;;1.00;0.90;;;;;;;;;;5053472;28;20254;-81
2023/06/03 10:23:39;;;;;;;1.20;1.10;;;;;;;;;;5053196;28;20197;-80
2023/06/03 10:26:07;;;;;;;0.95;0.95;;;;;;;;;;5052371;28;20194;-80
2023/06/03 10:28:37;;;;;;;1.92;1.00;;;;;;;;;;5046617;28;20207;-80
2023/06/03 10:31:05;;;;;;;0.90;0.90;;;;;;;;;;5033196;28;20276;-80
2023/06/03 10:33:34;;;;;;;1.10;1.00;;;;;;;;;;5033199;28;20228;-81
2023/06/03 10:36:04;;;;;;;1.48;1.38;;;;;;;;;;5033073;28;20208;-79
2023/06/03 10:38:32;;;;;;;6.53;1.08;;;;;;;;;;5034670;28;20208;-78
2023/06/03 10:41:01;;;;;;;2.97;1.20;;;;;;;;;;5052335;28;20201;-80
2023/06/03 10:43:29;;;;;;;0.88;0.88;;;;;;;;;;5053393;28;20284;-80
2023/06/03 10:45:58;;;;;;;0.90;0.90;;;;;;;;;;5052037;28;20305;-80
2023/06/03 10:48:28;;;;;;;0.82;0.82;;;;;;;;;;5052635;28;20194;-81
2023/06/03 10:51:05;;;;;;;0.80;0.80;;;;;;;;;;5053473;28;20256;-80
2023/06/03 10:53:43;;;;;;;1.25;1.02;;;;;;;;;;5052481;28;20221;-81
2023/06/03 10:56:22;;;;;;;1.38;1.27;;;;;;;;;;5052948;28;20205;-80
2023/06/03 10:59:02;;;;;;;1.05;1.05;;;;;;;;;;5053357;28;20205;-81
2023/06/03 11:02:00;;;;;;;0.98;0.98;;;;;;;;;;5052584;28;20201;-80
2023/06/03 11:04:29;;;;;;;0.95;0.95;;;;;;;;;;5051340;28;20575;-81
2023/06/03 11:06:57;;;;;;;1.00;1.00;;;;;;;;;;5053141;28;20232;-79
2023/06/03 11:09:36;;;;;;;1.20;1.10;;;;;;;;;;5052938;28;20206;-80
2023/06/03 11:12:10;;;;;;;1.73;1.20;;;;;;;;;;5052396;28;20200;-80
2023/06/03 11:14:56;;;;;;;1.27;1.02;;;;;;;;;;5052807;28;20221;-79
2023/06/03 11:17:27;;;;;;;3.15;1.13;;;;;;;;;;5053051;28;20268;-81
2023/06/03 11:19:59;;;;;;;1.10;1.00;;;;;;;;;;5051638;28;20666;-81
2023/06/03 11:22:46;;;;;;;1.73;1.48;;;;;;;;;;5053523;28;20201;-81
2023/06/03 11:25:31;;;;;;;0.90;0.90;;;;;;;;;;5056945;28;20288;-81
2023/06/03 11:28:35;;;;;;;1.75;1.17;;;;;;;;;;5056950;28;20261;-81
2023/06/03 11:31:05;;;;;;;0.80;0.80;;;;;;;;;;5052032;28;20190;-81
2023/06/03 11:33:34;;;;;;;1.60;1.27;;;;;;;;;;5056735;28;20244;-81
2023/06/03 11:36:57;;;;;;;1.40;1.30;;;;;;;;;;5056189;28;20208;-81
2023/06/03 11:39:25;;;;;;;1.10;1.10;;;;;;;;;;4946255;29;20205;-81
2023/06/03 11:42:11;;;;;;;1.00;1.00;;;;;;;;;;4956151;29;20209;-81
2023/06/03 11:44:42;;;;;;;1.48;1.40;;;;;;;;;;5010107;28;20221;-81
2023/06/03 11:47:10;;;;;;;3.20;1.40;;;;;;;;;;5055397;28;20273;-81
2023/06/03 11:49:41;;;;;;;1.33;1.20;;;;;;;;;;5056094;28;20194;-81
2023/06/03 11:52:09;;;;;;;1.00;1.00;;;;;;;;;;5056731;28;20285;-80
2023/06/03 11:54:38;;;;;;;1.10;1.00;;;;;;;;;;5054714;28;20320;-79
2023/06/03 11:57:08;;;;;;;1.00;1.00;;;;;;;;;;5056432;28;20213;-81
2023/06/03 11:59:39;;;;;;;1.70;0.90;;;;;;;;;;5056303;28;20216;-80
2023/06/03 12:02:08;;;;;;;1.02;0.98;;;;;;;;;;5056287;28;20207;-80
2023/06/03 12:04:36;;;;;;;1.80;1.50;;;;;;;;;;5056433;28;20267;-80
2023/06/03 12:07:14;;;;;;;1.38;1.27;;;;;;;;;;5054924;28;20239;-78
2023/06/03 12:09:42;;;;;;;0.90;0.90;;;;;;;;;;5055264;28;20204;-79
2023/06/03 12:12:13;;;;;;;1.20;1.10;;;;;;;;;;5054769;28;20205;-80
2023/06/03 12:14:41;;;;;;;0.90;0.90;;;;;;;;;;5055682;28;20380;-80
2023/06/03 12:17:13;;;;;;;1.33;0.98;;;;;;;;;;5055276;28;20319;-81
2023/06/03 12:19:42;;;;;;;0.95;0.95;;;;;;;;;;5055491;28;20202;-81
2023/06/03 12:22:11;;;;;;;5.88;1.20;;;;;;;;;;5056007;28;20204;-81
2023/06/03 12:24:43;;;;;;;1.15;1.10;;;;;;;;;;5055690;28;20198;-81
2023/06/03 12:27:16;;;;;;;2.42;0.88;;;;;;;;;;5055494;28;20217;-80
2023/06/03 12:29:44;;;;;;;1.25;1.15;;;;;;;;;;5054599;28;20200;-80
2023/06/03 12:32:12;;;;;;;1.10;1.10;;;;;;;;;;5054407;28;20213;-78
2023/06/03 12:34:40;;;;;;;1.20;1.10;;;;;;;;;;5053976;28;20720;-78
2023/06/03 12:37:12;;;;;;;1.20;1.20;;;;;;;;;;5054457;28;20256;-80
2023/06/03 12:39:50;;;;;;;0.93;0.93;;;;;;;;;;5054786;28;20729;-80
2023/06/03 12:42:19;;;;;;;1.10;1.00;;;;;;;;;;5054769;28;20287;-79
2023/06/03 12:44:50;;;;;;;0.93;0.93;;;;;;;;;;5046239;28;20204;-79
2023/06/03 12:47:19;;;;;;;0.90;0.90;;;;;;;;;;5040807;28;20762;-79
2023/06/03 12:50:05;;;;;;;1.00;1.00;;;;;;;;;;5053682;28;20194;-80
2023/06/03 12:52:36;;;;;;;2.42;1.20;;;;;;;;;;5054079;28;20197;-79
2023/06/03 12:55:06;;;;;;;1.15;1.00;;;;;;;;;;5053928;28;20249;-79
2023/06/03 12:57:34;;;;;;;0.80;0.73;;;;;;;;;;5054874;28;20279;-80
2023/06/03 13:00:07;;;;;;;0.85;0.85;;;;;;;;;;5053217;28;20200;-80
2023/06/03 13:02:35;;;;;;;0.80;0.80;;;;;;;;;;5041458;28;20669;-79
2023/06/03 13:05:02;;;;;;;0.98;0.98;;;;;;;;;;5053826;28;20198;-80
2023/06/03 13:07:30;;;;;;;1.20;1.10;;;;;;;;;;5053738;28;20599;-77
2023/06/03 13:10:00;;;;;;;1.33;0.90;;;;;;;;;;5053007;28;20202;-78
2023/06/03 13:12:29;;;;;;;1.05;0.95;;;;;;;;;;5053326;28;20197;-79
2023/06/03 13:14:56;;;;;;;1.33;1.00;;;;;;;;;;5053023;28;20221;-78
2023/06/03 13:17:25;;;;;;;1.48;1.25;;;;;;;;;;5052804;28;20669;-78
2023/06/03 13:19:53;;;;;;;1.42;1.33;;;;;;;;;;5035314;28;20207;-79
2023/06/03 13:22:23;;;;;;;1.10;1.00;;;;;;;;;;5033151;28;20208;-78
2023/06/03 13:24:51;;;;;;;1.15;1.15;;;;;;;;;;5047970;28;20256;-78
2023/06/03 13:27:21;;;;;;;1.90;1.00;;;;;;;;;;5053177;28;20221;-78
2023/06/03 13:29:48;;;;;;;0.73;0.73;;;;;;;;;;5052886;28;20228;-82
2023/06/03 13:32:16;;;;;;;2.03;0.93;;;;;;;;;;5052177;28;20205;-78
2023/06/03 13:34:44;;;;;;;1.10;1.00;;;;;;;;;;5052020;28;20206;-78
2023/06/03 13:37:12;;;;;;;0.90;0.90;;;;;;;;;;5050141;28;20271;-77
2023/06/03 13:39:40;;;;;;;1.02;0.93;;;;;;;;;;5051714;28;20198;-78
2023/06/03 13:42:08;;;;;;;0.98;0.90;;;;;;;;;;5052528;28;20658;-79
2023/06/03 13:44:37;;;;;;;0.95;0.88;;;;;;;;;;5052035;28;20205;-77
2023/06/03 13:47:06;;;;;;;2.17;1.30;;;;;;;;;;5049482;28;20220;-78
2023/06/03 13:49:33;;;;;;;1.58;0.85;;;;;;;;;;5050236;28;20645;-79
2023/06/03 13:52:01;;;;;;;1.08;1.00;;;;;;;;;;5050394;28;20213;-78
2023/06/03 13:54:28;;;;;;;1.17;1.10;;;;;;;;;;5049853;28;20208;-78
2023/06/03 13:56:56;;;;;;;0.95;0.95;;;;;;;;;;5050157;28;20326;-78
2023/06/03 13:59:24;;;;;;;1.98;0.98;;;;;;;;;;5050734;28;20295;-78
2023/06/03 14:01:54;;;;;;;0.70;0.70;;;;;;;;;;5050671;28;20208;-78
2023/06/03 14:04:22;;;;;;;0.80;0.80;;;;;;;;;;5050347;28;20200;-78
2023/06/03 14:06:49;;;;;;;1.13;1.02;;;;;;;;;;5047944;28;20236;-78
2023/06/03 14:09:17;;;;;;;1.25;1.08;;;;;;;;;;5049289;28;20696;-78
2023/06/03 14:11:45;;;;;;;1.13;1.13;;;;;;;;;;5050993;28;20200;-78
2023/06/03 14:14:12;;;;;;;1.10;1.00;;;;;;;;;;5052534;28;20256;-78
2023/06/03 14:16:43;;;;;;;1.02;1.00;;;;;;;;;;5045929;28;20225;-79
2023/06/03 14:19:11;;;;;;;2.25;1.10;;;;;;;;;;5049688;28;20279;-79
2023/06/03 14:21:39;;;;;;;1.30;1.20;;;;;;;;;;5047793;28;20657;-78
2023/06/03 14:24:07;;;;;;;0.98;0.98;;;;;;;;;;5051642;28;20198;-78
2023/06/03 14:26:35;;;;;;;3.88;1.10;;;;;;;;;;5049662;28;20599;-79
2023/06/03 14:29:04;;;;;;;0.88;0.88;;;;;;;;;;5051271;28;20201;-77
2023/06/03 14:31:32;;;;;;;0.88;0.88;;;;;;;;;;5048045;28;20202;-78
2023/06/03 14:34:00;;;;;;;1.20;1.10;;;;;;;;;;5047699;28;20205;-79
2023/06/03 14:36:28;;;;;;;2.50;1.27;;;;;;;;;;5046761;28;20655;-77
2023/06/03 14:38:56;;;;;;;1.50;1.40;;;;;;;;;;5049419;28;20194;-78
2023/06/03 14:41:23;;;;;;;0.77;0.77;;;;;;;;;;5046473;28;21140;-78
2023/06/03 14:43:51;;;;;;;1.42;1.00;;;;;;;;;;5048460;28;20247;-78
2023/06/03 14:46:19;;;;;;;0.90;0.90;;;;;;;;;;5048504;28;20642;-79
2023/06/03 14:48:46;;;;;;;0.90;0.90;;;;;;;;;;5046441;28;20232;-78
2023/06/03 14:51:14;;;;;;;0.77;0.77;;;;;;;;;;5050088;28;20201;-79
2023/06/03 14:53:42;;;;;;;1.98;0.90;;;;;;;;;;5043129;28;20193;-78
2023/06/03 14:56:10;;;;;;;0.77;0.77;;;;;;;;;;5051570;28;20225;-78
2023/06/03 14:58:37;;;;;;;1.20;1.13;;;;;;;;;;5052116;28;20288;-77
2023/06/03 15:01:05;;;;;;;2.60;1.50;;;;;;;;;;5055347;28;20197;-79